TimeEST,TemperatureF,Dew PointF,Humidity,Sea Level PressureIn,VisibilityMPH,Wind Direction,Wind SpeedMPH,Gust SpeedMPH,PrecipitationIn,Events,Conditions,WindDirDegrees,DateUTC
12:56 AM,64.0,59.0,84,29.99,10.0,SW,8.1,-,N/A,,Partly Cloudy,220,2013-01-17 05:56:00
1:56 AM,64.0,60.1,87,29.99,10.0,SW,8.1,-,N/A,,Clear,220,2013-01-17 06:56:00
2:56 AM,61.0,57.9,90,29.98,10.0,SSW,5.8,-,N/A,,Clear,210,2013-01-17 07:56:00
3:56 AM,60.1,57.9,93,29.97,10.0,South,8.1,-,N/A,,Clear,180,2013-01-17 08:56:00
4:56 AM,59.0,57.9,96,29.97,10.0,SSW,6.9,-,N/A,,Clear,200,2013-01-17 09:56:00
5:56 AM,59.0,55.9,90,29.97,10.0,SSW,6.9,-,N/A,,Clear,210,2013-01-17 10:56:00
6:56 AM,59.0,57.0,93,29.98,10.0,South,8.1,-,N/A,,Clear,190,2013-01-17 11:56:00
7:56 AM,59.0,57.0,93,29.98,10.0,South,4.6,-,N/A,,Partly Cloudy,190,2013-01-17 12:56:00
8:56 AM,64.9,60.1,84,29.98,10.0,South,9.2,-,N/A,,Partly Cloudy,190,2013-01-17 13:56:00
9:56 AM,72.0,59.0,64,29.96,10.0,SSW,8.1,-,N/A,,Partly Cloudy,200,2013-01-17 14:56:00
10:56 AM,77.0,57.9,52,29.93,10.0,South,12.7,-,N/A,,Partly Cloudy,170,2013-01-17 15:56:00
11:56 AM,78.1,57.0,48,29.88,10.0,SSW,17.3,25.3,N/A,,Scattered Clouds,200,2013-01-17 16:56:00
12:56 PM,77.0,55.9,48,29.84,10.0,SSW,24.2,29.9,N/A,,Scattered Clouds,200,2013-01-17 17:56:00
1:56 PM,75.9,57.9,54,29.81,10.0,SSW,17.3,29.9,N/A,,Mostly Cloudy,210,2013-01-17 18:56:00
2:56 PM,75.0,57.9,55,29.77,10.0,SSW,26.5,34.5,N/A,,Scattered Clouds,200,2013-01-17 19:56:00
3:56 PM,72.0,59.0,64,29.76,10.0,SSW,19.6,32.2,N/A,,Mostly Cloudy,200,2013-01-17 20:56:00
4:26 PM,69.8,60.8,73,29.77,10.0,SSW,19.6,35.7,N/A,,Mostly Cloudy,210,2013-01-17 21:26:00
4:56 PM,57.0,54.0,89,29.84,4.0,West,18.4,38.0,0.00,Rain,Rain,260,2013-01-17 21:56:00
5:56 PM,54.0,51.1,90,29.87,5.0,WSW,19.6,29.9,0.05,Rain,Light Rain,250,2013-01-17 22:56:00
6:14 PM,53.6,48.2,82,29.87,10.0,WSW,15.0,27.6,0.01,Rain,Light Rain,250,2013-01-17 23:14:00
6:56 PM,51.1,46.0,83,29.91,10.0,West,15.0,21.9,0.01,,Scattered Clouds,260,2013-01-17 23:56:00
7:56 PM,48.9,46.0,90,29.94,10.0,West,6.9,-,N/A,,Partly Cloudy,270,2013-01-18 00:56:00
8:56 PM,48.9,45.0,86,29.99,10.0,WNW,11.5,-,N/A,,Mostly Cloudy,290,2013-01-18 01:56:00
9:56 PM,46.9,39.9,77,30.02,10.0,West,12.7,21.9,N/A,,Mostly Cloudy,280,2013-01-18 02:56:00
10:56 PM,46.0,37.9,73,30.04,10.0,WNW,17.3,23.0,N/A,,Scattered Clouds,300,2013-01-18 03:56:00
11:50 PM,46.4,37.4,71,30.05,10.0,NW,12.7,-,N/A,,Overcast,320,2013-01-18 04:50:00
11:56 PM,46.9,37.9,71,30.06,10.0,NW,12.7,-,N/A,,Overcast,310,2013-01-18 04:56:00